sensor_id;sensor_type;location;lat;lon;timestamp;P1;durP1;ratioP1;P2;durP2;ratioP2
34317;SDS011;20582;52.196;20.952;2022-09-21T00:00:24;14.98;;;7.05;;
34317;SDS011;20582;52.196;20.952;2022-09-21T00:02:50;12.23;;;6.35;;
34317;SDS011;20582;52.196;20.952;2022-09-21T00:05:16;12.70;;;7.07;;
34317;SDS011;20582;52.196;20.952;2022-09-21T00:07:43;12.88;;;7.50;;
34317;SDS011;20582;52.196;20.952;2022-09-21T00:10:09;12.73;;;6.95;;
34317;SDS011;20582;52.196;20.952;2022-09-21T00:12:35;11.60;;;6.25;;
34317;SDS011;20582;52.196;20.952;2022-09-21T00:15:05;11.25;;;6.43;;
34317;SDS011;20582;52.196;20.952;2022-09-21T00:17:31;11.57;;;6.47;;
34317;SDS011;20582;52.196;20.952;2022-09-21T00:19:58;11.75;;;6.43;;
34317;SDS011;20582;52.196;20.952;2022-09-21T00:22:26;12.30;;;6.80;;
34317;SDS011;20582;52.196;20.952;2022-09-21T00:24:53;14.35;;;6.97;;
34317;SDS011;20582;52.196;20.952;2022-09-21T00:27:20;15.50;;;7.05;;
34317;SDS011;20582;52.196;20.952;2022-09-21T00:29:46;11.98;;;6.68;;
34317;SDS011;20582;52.196;20.952;2022-09-21T00:32:12;11.48;;;6.97;;
34317;SDS011;20582;52.196;20.952;2022-09-21T00:34:39;11.20;;;6.82;;
34317;SDS011;20582;52.196;20.952;2022-09-21T00:37:06;12.98;;;6.53;;
34317;SDS011;20582;52.196;20.952;2022-09-21T00:39:33;14.27;;;6.80;;
34317;SDS011;20582;52.196;20.952;2022-09-21T00:41:59;13.50;;;7.05;;
34317;SDS011;20582;52.196;20.952;2022-09-21T00:44:32;12.48;;;7.13;;
34317;SDS011;20582;52.196;20.952;2022-09-21T00:47:14;14.98;;;7.00;;
34317;SDS011;20582;52.196;20.952;2022-09-21T00:49:41;13.20;;;7.30;;
34317;SDS011;20582;52.196;20.952;2022-09-21T00:52:08;11.40;;;6.95;;
34317;SDS011;20582;52.196;20.952;2022-09-21T00:54:39;13.60;;;7.00;;
34317;SDS011;20582;52.196;20.952;2022-09-21T00:57:06;12.45;;;6.47;;
34317;SDS011;20582;52.196;20.952;2022-09-21T00:59:33;15.18;;;7.85;;
34317;SDS011;20582;52.196;20.952;2022-09-21T01:02:00;13.60;;;6.75;;
34317;SDS011;20582;52.196;20.952;2022-09-21T01:04:26;14.23;;;6.85;;
34317;SDS011;20582;52.196;20.952;2022-09-21T01:06:53;13.48;;;8.93;;
34317;SDS011;20582;52.196;20.952;2022-09-21T01:09:20;15.93;;;8.65;;
34317;SDS011;20582;52.196;20.952;2022-09-21T01:16:41;14.25;;;8.80;;
34317;SDS011;20582;52.196;20.952;2022-09-21T01:24:41;16.35;;;9.07;;
34317;SDS011;20582;52.196;20.952;2022-09-21T01:27:32;14.65;;;8.93;;
34317;SDS011;20582;52.196;20.952;2022-09-21T01:32:31;16.60;;;9.05;;
34317;SDS011;20582;52.196;20.952;2022-09-21T01:35:00;15.80;;;9.75;;
34317;SDS011;20582;52.196;20.952;2022-09-21T01:37:30;24.77;;;9.60;;
34317;SDS011;20582;52.196;20.952;2022-09-21T01:39:59;18.52;;;9.32;;
34317;SDS011;20582;52.196;20.952;2022-09-21T01:42:26;16.35;;;9.80;;
34317;SDS011;20582;52.196;20.952;2022-09-21T01:44:54;16.00;;;10.30;;
34317;SDS011;20582;52.196;20.952;2022-09-21T01:47:22;16.60;;;9.63;;
34317;SDS011;20582;52.196;20.952;2022-09-21T01:49:50;16.00;;;10.48;;
34317;SDS011;20582;52.196;20.952;2022-09-21T01:52:22;18.10;;;10.23;;
34317;SDS011;20582;52.196;20.952;2022-09-21T01:54:53;18.83;;;10.02;;
34317;SDS011;20582;52.196;20.952;2022-09-21T01:57:22;19.65;;;11.48;;
34317;SDS011;20582;52.196;20.952;2022-09-21T01:59:51;17.98;;;11.00;;
34317;SDS011;20582;52.196;20.952;2022-09-21T02:02:24;20.20;;;12.32;;
34317;SDS011;20582;52.196;20.952;2022-09-21T02:04:51;18.08;;;12.48;;
34317;SDS011;20582;52.196;20.952;2022-09-21T02:07:18;17.17;;;11.95;;
34317;SDS011;20582;52.196;20.952;2022-09-21T02:09:44;22.55;;;12.52;;
34317;SDS011;20582;52.196;20.952;2022-09-21T02:12:11;19.15;;;11.82;;
34317;SDS011;20582;52.196;20.952;2022-09-21T02:14:38;18.42;;;12.10;;
34317;SDS011;20582;52.196;20.952;2022-09-21T02:19:45;16.95;;;12.02;;
34317;SDS011;20582;52.196;20.952;2022-09-21T02:24:49;17.70;;;11.57;;
34317;SDS011;20582;52.196;20.952;2022-09-21T02:35:12;15.75;;;11.25;;
34317;SDS011;20582;52.196;20.952;2022-09-21T02:37:44;20.38;;;11.85;;
34317;SDS011;20582;52.196;20.952;2022-09-21T02:42:41;18.30;;;11.15;;
34317;SDS011;20582;52.196;20.952;2022-09-21T02:45:19;17.48;;;11.07;;
34317;SDS011;20582;52.196;20.952;2022-09-21T02:47:48;20.98;;;12.65;;
34317;SDS011;20582;52.196;20.952;2022-09-21T02:50:19;18.27;;;12.07;;
34317;SDS011;20582;52.196;20.952;2022-09-21T02:52:47;18.05;;;11.88;;
34317;SDS011;20582;52.196;20.952;2022-09-21T02:55:14;21.38;;;12.02;;
34317;SDS011;20582;52.196;20.952;2022-09-21T02:57:41;19.45;;;12.85;;
34317;SDS011;20582;52.196;20.952;2022-09-21T03:00:07;23.60;;;13.55;;
34317;SDS011;20582;52.196;20.952;2022-09-21T03:02:35;19.40;;;13.05;;
34317;SDS011;20582;52.196;20.952;2022-09-21T03:05:01;19.92;;;13.30;;
34317;SDS011;20582;52.196;20.952;2022-09-21T03:07:27;20.98;;;12.13;;
34317;SDS011;20582;52.196;20.952;2022-09-21T03:09:53;21.17;;;13.48;;
34317;SDS011;20582;52.196;20.952;2022-09-21T03:12:19;21.35;;;14.20;;
34317;SDS011;20582;52.196;20.952;2022-09-21T03:14:46;24.05;;;14.82;;
34317;SDS011;20582;52.196;20.952;2022-09-21T03:17:12;22.13;;;14.43;;
34317;SDS011;20582;52.196;20.952;2022-09-21T03:19:38;25.10;;;14.32;;
34317;SDS011;20582;52.196;20.952;2022-09-21T03:22:04;22.30;;;14.02;;
34317;SDS011;20582;52.196;20.952;2022-09-21T03:24:30;22.55;;;13.77;;
34317;SDS011;20582;52.196;20.952;2022-09-21T03:27:12;20.63;;;13.05;;
34317;SDS011;20582;52.196;20.952;2022-09-21T03:29:39;22.05;;;14.30;;
34317;SDS011;20582;52.196;20.952;2022-09-21T03:32:05;22.60;;;13.48;;
34317;SDS011;20582;52.196;20.952;2022-09-21T03:34:31;22.58;;;13.05;;
34317;SDS011;20582;52.196;20.952;2022-09-21T03:36:58;21.05;;;13.05;;
34317;SDS011;20582;52.196;20.952;2022-09-21T03:39:24;20.27;;;12.32;;
34317;SDS011;20582;52.196;20.952;2022-09-21T03:41:50;20.73;;;13.50;;
34317;SDS011;20582;52.196;20.952;2022-09-21T03:44:16;18.05;;;12.45;;
34317;SDS011;20582;52.196;20.952;2022-09-21T03:46:43;18.38;;;12.23;;
34317;SDS011;20582;52.196;20.952;2022-09-21T03:49:09;20.25;;;13.00;;
34317;SDS011;20582;52.196;20.952;2022-09-21T03:51:35;18.48;;;13.38;;
34317;SDS011;20582;52.196;20.952;2022-09-21T03:54:03;20.35;;;12.73;;
34317;SDS011;20582;52.196;20.952;2022-09-21T03:56:28;19.95;;;13.27;;
34317;SDS011;20582;52.196;20.952;2022-09-21T03:58:55;19.20;;;12.73;;
34317;SDS011;20582;52.196;20.952;2022-09-21T04:01:21;19.45;;;13.15;;
34317;SDS011;20582;52.196;20.952;2022-09-21T04:03:47;19.67;;;13.32;;
34317;SDS011;20582;52.196;20.952;2022-09-21T04:06:13;19.27;;;13.25;;
34317;SDS011;20582;52.196;20.952;2022-09-21T04:08:39;18.90;;;12.65;;
34317;SDS011;20582;52.196;20.952;2022-09-21T04:11:09;18.35;;;13.02;;
34317;SDS011;20582;52.196;20.952;2022-09-21T04:13:35;19.93;;;13.13;;
34317;SDS011;20582;52.196;20.952;2022-09-21T04:16:01;19.13;;;12.52;;
34317;SDS011;20582;52.196;20.952;2022-09-21T04:18:27;19.90;;;12.32;;
34317;SDS011;20582;52.196;20.952;2022-09-21T04:20:53;19.42;;;12.98;;
34317;SDS011;20582;52.196;20.952;2022-09-21T04:23:19;18.08;;;12.88;;
34317;SDS011;20582;52.196;20.952;2022-09-21T04:25:47;17.55;;;11.23;;
34317;SDS011;20582;52.196;20.952;2022-09-21T04:28:15;17.13;;;11.32;;
34317;SDS011;20582;52.196;20.952;2022-09-21T04:30:41;18.20;;;11.98;;
34317;SDS011;20582;52.196;20.952;2022-09-21T04:33:07;18.90;;;12.07;;
34317;SDS011;20582;52.196;20.952;2022-09-21T04:35:33;18.90;;;11.82;;
34317;SDS011;20582;52.196;20.952;2022-09-21T04:37:59;18.35;;;11.93;;
34317;SDS011;20582;52.196;20.952;2022-09-21T04:40:25;16.23;;;11.38;;
34317;SDS011;20582;52.196;20.952;2022-09-21T04:42:52;17.85;;;12.07;;
34317;SDS011;20582;52.196;20.952;2022-09-21T04:45:19;18.40;;;11.05;;
34317;SDS011;20582;52.196;20.952;2022-09-21T04:47:45;18.98;;;11.13;;
34317;SDS011;20582;52.196;20.952;2022-09-21T04:50:11;16.63;;;11.20;;
34317;SDS011;20582;52.196;20.952;2022-09-21T04:52:37;18.35;;;11.50;;
34317;SDS011;20582;52.196;20.952;2022-09-21T04:55:04;19.67;;;11.48;;
34317;SDS011;20582;52.196;20.952;2022-09-21T04:57:30;17.48;;;11.77;;
34317;SDS011;20582;52.196;20.952;2022-09-21T04:59:56;16.20;;;11.20;;
34317;SDS011;20582;52.196;20.952;2022-09-21T05:02:22;18.67;;;12.32;;
34317;SDS011;20582;52.196;20.952;2022-09-21T05:04:48;20.08;;;12.82;;
34317;SDS011;20582;52.196;20.952;2022-09-21T05:07:15;17.27;;;12.52;;
34317;SDS011;20582;52.196;20.952;2022-09-21T05:09:41;17.77;;;12.32;;
34317;SDS011;20582;52.196;20.952;2022-09-21T05:12:26;19.38;;;13.48;;
34317;SDS011;20582;52.196;20.952;2022-09-21T05:14:52;20.02;;;12.05;;
34317;SDS011;20582;52.196;20.952;2022-09-21T05:17:19;22.13;;;12.73;;
34317;SDS011;20582;52.196;20.952;2022-09-21T05:19:47;16.95;;;11.93;;
34317;SDS011;20582;52.196;20.952;2022-09-21T05:22:13;18.58;;;12.32;;
34317;SDS011;20582;52.196;20.952;2022-09-21T05:24:39;19.08;;;11.68;;
34317;SDS011;20582;52.196;20.952;2022-09-21T05:27:05;20.52;;;13.20;;
34317;SDS011;20582;52.196;20.952;2022-09-21T05:29:31;15.63;;;11.27;;
34317;SDS011;20582;52.196;20.952;2022-09-21T05:32:41;16.98;;;11.15;;
34317;SDS011;20582;52.196;20.952;2022-09-21T05:37:36;16.45;;;10.95;;
34317;SDS011;20582;52.196;20.952;2022-09-21T05:40:03;16.70;;;11.50;;
34317;SDS011;20582;52.196;20.952;2022-09-21T05:42:30;18.73;;;11.15;;
34317;SDS011;20582;52.196;20.952;2022-09-21T05:44:56;20.27;;;11.30;;
34317;SDS011;20582;52.196;20.952;2022-09-21T05:57:38;16.77;;;9.77;;
34317;SDS011;20582;52.196;20.952;2022-09-21T06:00:13;15.75;;;10.30;;
34317;SDS011;20582;52.196;20.952;2022-09-21T06:05:12;15.15;;;9.98;;
34317;SDS011;20582;52.196;20.952;2022-09-21T06:07:39;13.77;;;8.48;;
34317;SDS011;20582;52.196;20.952;2022-09-21T06:10:06;16.58;;;9.52;;
34317;SDS011;20582;52.196;20.952;2022-09-21T06:12:32;16.02;;;9.00;;
34317;SDS011;20582;52.196;20.952;2022-09-21T06:14:58;14.38;;;9.85;;
34317;SDS011;20582;52.196;20.952;2022-09-21T06:17:24;22.00;;;9.13;;
34317;SDS011;20582;52.196;20.952;2022-09-21T06:19:51;19.33;;;9.65;;
34317;SDS011;20582;52.196;20.952;2022-09-21T06:22:17;13.55;;;8.30;;
34317;SDS011;20582;52.196;20.952;2022-09-21T06:24:43;13.43;;;8.32;;
34317;SDS011;20582;52.196;20.952;2022-09-21T06:27:10;12.73;;;8.60;;
34317;SDS011;20582;52.196;20.952;2022-09-21T06:29:36;12.10;;;8.63;;
34317;SDS011;20582;52.196;20.952;2022-09-21T06:32:02;12.80;;;7.88;;
34317;SDS011;20582;52.196;20.952;2022-09-21T06:34:28;12.38;;;8.15;;
34317;SDS011;20582;52.196;20.952;2022-09-21T06:36:55;13.52;;;8.85;;
34317;SDS011;20582;52.196;20.952;2022-09-21T06:39:21;13.57;;;8.63;;
34317;SDS011;20582;52.196;20.952;2022-09-21T06:41:47;15.30;;;8.50;;
34317;SDS011;20582;52.196;20.952;2022-09-21T06:44:13;11.65;;;7.93;;
34317;SDS011;20582;52.196;20.952;2022-09-21T06:46:40;12.65;;;7.70;;
34317;SDS011;20582;52.196;20.952;2022-09-21T06:49:06;11.65;;;7.20;;
34317;SDS011;20582;52.196;20.952;2022-09-21T06:51:32;11.88;;;7.50;;
34317;SDS011;20582;52.196;20.952;2022-09-21T06:53:59;11.10;;;6.53;;
34317;SDS011;20582;52.196;20.952;2022-09-21T06:56:25;10.80;;;6.25;;
34317;SDS011;20582;52.196;20.952;2022-09-21T06:58:51;10.30;;;5.80;;
34317;SDS011;20582;52.196;20.952;2022-09-21T07:01:17;10.35;;;6.18;;
34317;SDS011;20582;52.196;20.952;2022-09-21T07:03:43;9.60;;;5.70;;
34317;SDS011;20582;52.196;20.952;2022-09-21T07:06:10;9.05;;;5.47;;
34317;SDS011;20582;52.196;20.952;2022-09-21T07:08:38;8.82;;;5.40;;
34317;SDS011;20582;52.196;20.952;2022-09-21T07:11:04;8.15;;;4.78;;
34317;SDS011;20582;52.196;20.952;2022-09-21T07:13:30;9.40;;;4.70;;
34317;SDS011;20582;52.196;20.952;2022-09-21T07:15:56;7.60;;;4.32;;
34317;SDS011;20582;52.196;20.952;2022-09-21T07:18:22;7.65;;;4.07;;
34317;SDS011;20582;52.196;20.952;2022-09-21T07:20:49;8.95;;;4.43;;
34317;SDS011;20582;52.196;20.952;2022-09-21T07:23:16;6.75;;;3.80;;
34317;SDS011;20582;52.196;20.952;2022-09-21T07:25:43;9.20;;;4.22;;
34317;SDS011;20582;52.196;20.952;2022-09-21T07:28:09;8.73;;;4.20;;
34317;SDS011;20582;52.196;20.952;2022-09-21T07:30:36;8.07;;;4.05;;
34317;SDS011;20582;52.196;20.952;2022-09-21T07:33:03;6.78;;;3.40;;
34317;SDS011;20582;52.196;20.952;2022-09-21T07:35:29;6.20;;;3.28;;
34317;SDS011;20582;52.196;20.952;2022-09-21T07:38:02;5.75;;;3.03;;
34317;SDS011;20582;52.196;20.952;2022-09-21T07:40:29;6.70;;;3.50;;
34317;SDS011;20582;52.196;20.952;2022-09-21T07:42:58;6.05;;;3.45;;
34317;SDS011;20582;52.196;20.952;2022-09-21T07:45:28;6.80;;;3.45;;
34317;SDS011;20582;52.196;20.952;2022-09-21T07:47:55;7.32;;;3.13;;
34317;SDS011;20582;52.196;20.952;2022-09-21T07:50:21;7.00;;;3.75;;
34317;SDS011;20582;52.196;20.952;2022-09-21T07:52:47;6.45;;;3.20;;
34317;SDS011;20582;52.196;20.952;2022-09-21T07:55:13;7.68;;;3.90;;
34317;SDS011;20582;52.196;20.952;2022-09-21T07:57:39;8.23;;;3.28;;
34317;SDS011;20582;52.196;20.952;2022-09-21T08:00:24;7.47;;;2.78;;
34317;SDS011;20582;52.196;20.952;2022-09-21T08:02:53;5.07;;;2.70;;
34317;SDS011;20582;52.196;20.952;2022-09-21T08:05:19;5.00;;;2.60;;
34317;SDS011;20582;52.196;20.952;2022-09-21T08:07:44;7.47;;;2.83;;
34317;SDS011;20582;52.196;20.952;2022-09-21T08:10:11;5.82;;;2.40;;
34317;SDS011;20582;52.196;20.952;2022-09-21T08:12:37;6.25;;;2.55;;
34317;SDS011;20582;52.196;20.952;2022-09-21T08:15:03;6.40;;;2.47;;
34317;SDS011;20582;52.196;20.952;2022-09-21T08:17:29;3.53;;;2.20;;
34317;SDS011;20582;52.196;20.952;2022-09-21T08:19:55;7.07;;;2.42;;
34317;SDS011;20582;52.196;20.952;2022-09-21T08:22:22;4.38;;;2.10;;
34317;SDS011;20582;52.196;20.952;2022-09-21T08:24:50;4.25;;;2.20;;
34317;SDS011;20582;52.196;20.952;2022-09-21T08:27:16;7.05;;;2.50;;
34317;SDS011;20582;52.196;20.952;2022-09-21T08:29:44;2.95;;;2.03;;
34317;SDS011;20582;52.196;20.952;2022-09-21T08:32:10;5.57;;;2.30;;
34317;SDS011;20582;52.196;20.952;2022-09-21T08:34:36;4.03;;;2.42;;
34317;SDS011;20582;52.196;20.952;2022-09-21T08:37:02;6.72;;;2.38;;
34317;SDS011;20582;52.196;20.952;2022-09-21T08:39:29;3.08;;;1.80;;
34317;SDS011;20582;52.196;20.952;2022-09-21T08:47:04;4.00;;;2.05;;
34317;SDS011;20582;52.196;20.952;2022-09-21T08:49:34;4.53;;;1.98;;
34317;SDS011;20582;52.196;20.952;2022-09-21T08:52:04;12.00;;;2.78;;
34317;SDS011;20582;52.196;20.952;2022-09-21T08:57:13;5.83;;;2.53;;
34317;SDS011;20582;52.196;20.952;2022-09-21T08:59:40;7.60;;;2.90;;
34317;SDS011;20582;52.196;20.952;2022-09-21T09:04:56;5.90;;;2.70;;
34317;SDS011;20582;52.196;20.952;2022-09-21T09:07:42;4.18;;;2.10;;
34317;SDS011;20582;52.196;20.952;2022-09-21T09:12:49;5.72;;;2.03;;
34317;SDS011;20582;52.196;20.952;2022-09-21T09:18:03;5.03;;;2.08;;
34317;SDS011;20582;52.196;20.952;2022-09-21T09:20:40;4.53;;;1.77;;
34317;SDS011;20582;52.196;20.952;2022-09-21T09:25:34;5.57;;;2.00;;
34317;SDS011;20582;52.196;20.952;2022-09-21T09:28:05;2.78;;;1.70;;
34317;SDS011;20582;52.196;20.952;2022-09-21T09:30:35;2.45;;;1.80;;
34317;SDS011;20582;52.196;20.952;2022-09-21T09:33:05;3.50;;;1.92;;
34317;SDS011;20582;52.196;20.952;2022-09-21T09:35:43;4.60;;;1.73;;
34317;SDS011;20582;52.196;20.952;2022-09-21T09:38:22;4.13;;;1.88;;
34317;SDS011;20582;52.196;20.952;2022-09-21T09:46:28;2.50;;;1.60;;
34317;SDS011;20582;52.196;20.952;2022-09-21T09:51:34;3.72;;;1.65;;
34317;SDS011;20582;52.196;20.952;2022-09-21T09:54:00;4.45;;;1.65;;
34317;SDS011;20582;52.196;20.952;2022-09-21T09:56:29;4.80;;;1.63;;
34317;SDS011;20582;52.196;20.952;2022-09-21T09:58:58;2.40;;;1.70;;
34317;SDS011;20582;52.196;20.952;2022-09-21T10:01:41;3.85;;;1.73;;
34317;SDS011;20582;52.196;20.952;2022-09-21T10:04:12;4.13;;;1.83;;
34317;SDS011;20582;52.196;20.952;2022-09-21T10:06:38;2.53;;;1.70;;
34317;SDS011;20582;52.196;20.952;2022-09-21T10:09:18;3.90;;;1.50;;
34317;SDS011;20582;52.196;20.952;2022-09-21T10:11:44;3.38;;;1.70;;
34317;SDS011;20582;52.196;20.952;2022-09-21T10:14:13;2.97;;;1.30;;
34317;SDS011;20582;52.196;20.952;2022-09-21T10:16:42;3.70;;;1.38;;
34317;SDS011;20582;52.196;20.952;2022-09-21T10:19:16;2.00;;;1.30;;
34317;SDS011;20582;52.196;20.952;2022-09-21T10:21:43;4.00;;;1.55;;
34317;SDS011;20582;52.196;20.952;2022-09-21T10:26:53;2.75;;;1.73;;
34317;SDS011;20582;52.196;20.952;2022-09-21T10:31:58;2.47;;;1.55;;
34317;SDS011;20582;52.196;20.952;2022-09-21T10:34:25;4.78;;;2.00;;
34317;SDS011;20582;52.196;20.952;2022-09-21T10:36:53;4.30;;;2.25;;
34317;SDS011;20582;52.196;20.952;2022-09-21T10:39:29;4.35;;;1.90;;
34317;SDS011;20582;52.196;20.952;2022-09-21T10:44:24;7.32;;;1.63;;
34317;SDS011;20582;52.196;20.952;2022-09-21T10:46:52;2.80;;;1.30;;
34317;SDS011;20582;52.196;20.952;2022-09-21T10:49:20;4.75;;;1.65;;
34317;SDS011;20582;52.196;20.952;2022-09-21T10:51:47;5.35;;;1.50;;
34317;SDS011;20582;52.196;20.952;2022-09-21T10:54:16;5.18;;;1.80;;
34317;SDS011;20582;52.196;20.952;2022-09-21T10:56:54;3.22;;;1.17;;
34317;SDS011;20582;52.196;20.952;2022-09-21T10:59:23;4.75;;;1.67;;
34317;SDS011;20582;52.196;20.952;2022-09-21T11:01:50;4.07;;;1.30;;
34317;SDS011;20582;52.196;20.952;2022-09-21T11:06:44;2.85;;;1.60;;
34317;SDS011;20582;52.196;20.952;2022-09-21T11:12:06;3.30;;;1.63;;
34317;SDS011;20582;52.196;20.952;2022-09-21T11:14:41;2.20;;;1.90;;
34317;SDS011;20582;52.196;20.952;2022-09-21T11:22:45;4.75;;;1.40;;
34317;SDS011;20582;52.196;20.952;2022-09-21T11:25:31;2.47;;;1.40;;
34317;SDS011;20582;52.196;20.952;2022-09-21T11:28:03;4.32;;;1.30;;
34317;SDS011;20582;52.196;20.952;2022-09-21T11:30:31;2.38;;;1.50;;
34317;SDS011;20582;52.196;20.952;2022-09-21T11:41:08;7.25;;;2.33;;
34317;SDS011;20582;52.196;20.952;2022-09-21T11:51:22;3.85;;;1.70;;
34317;SDS011;20582;52.196;20.952;2022-09-21T12:12:40;6.53;;;1.90;;
34317;SDS011;20582;52.196;20.952;2022-09-21T12:15:10;5.28;;;1.80;;
34317;SDS011;20582;52.196;20.952;2022-09-21T12:22:46;3.47;;;1.40;;
34317;SDS011;20582;52.196;20.952;2022-09-21T12:25:16;1.88;;;1.23;;
34317;SDS011;20582;52.196;20.952;2022-09-21T12:30:16;7.07;;;1.77;;
34317;SDS011;20582;52.196;20.952;2022-09-21T12:33:00;5.75;;;1.30;;
34317;SDS011;20582;52.196;20.952;2022-09-21T12:35:31;2.38;;;1.05;;
34317;SDS011;20582;52.196;20.952;2022-09-21T12:38:03;2.38;;;0.80;;
34317;SDS011;20582;52.196;20.952;2022-09-21T12:40:51;2.05;;;0.90;;
34317;SDS011;20582;52.196;20.952;2022-09-21T12:43:27;2.97;;;1.25;;
34317;SDS011;20582;52.196;20.952;2022-09-21T12:45:57;2.63;;;1.38;;
34317;SDS011;20582;52.196;20.952;2022-09-21T12:50:57;4.07;;;1.45;;
34317;SDS011;20582;52.196;20.952;2022-09-21T12:53:27;1.50;;;0.85;;
34317;SDS011;20582;52.196;20.952;2022-09-21T13:03:38;2.33;;;1.05;;
34317;SDS011;20582;52.196;20.952;2022-09-21T13:06:21;2.15;;;0.85;;
34317;SDS011;20582;52.196;20.952;2022-09-21T13:08:51;2.05;;;0.85;;
34317;SDS011;20582;52.196;20.952;2022-09-21T13:11:18;3.40;;;1.20;;
34317;SDS011;20582;52.196;20.952;2022-09-21T13:18:42;5.53;;;1.27;;
34317;SDS011;20582;52.196;20.952;2022-09-21T13:21:15;6.15;;;1.35;;
34317;SDS011;20582;52.196;20.952;2022-09-21T13:23:42;3.63;;;1.10;;
34317;SDS011;20582;52.196;20.952;2022-09-21T13:26:09;2.88;;;1.10;;
34317;SDS011;20582;52.196;20.952;2022-09-21T13:31:40;5.53;;;1.27;;
34317;SDS011;20582;52.196;20.952;2022-09-21T13:34:23;2.70;;;1.23;;
34317;SDS011;20582;52.196;20.952;2022-09-21T13:42:43;6.63;;;0.98;;
34317;SDS011;20582;52.196;20.952;2022-09-21T13:47:43;2.08;;;0.98;;
34317;SDS011;20582;52.196;20.952;2022-09-21T13:50:23;3.83;;;1.20;;
34317;SDS011;20582;52.196;20.952;2022-09-21T13:52:50;5.05;;;1.25;;
34317;SDS011;20582;52.196;20.952;2022-09-21T13:57:52;7.28;;;1.67;;
34317;SDS011;20582;52.196;20.952;2022-09-21T14:07:43;5.50;;;2.03;;
34317;SDS011;20582;52.196;20.952;2022-09-21T14:10:15;4.65;;;1.90;;
34317;SDS011;20582;52.196;20.952;2022-09-21T14:12:42;4.70;;;1.92;;
34317;SDS011;20582;52.196;20.952;2022-09-21T14:17:43;6.00;;;1.77;;
34317;SDS011;20582;52.196;20.952;2022-09-21T14:20:29;3.88;;;2.10;;
34317;SDS011;20582;52.196;20.952;2022-09-21T14:25:53;5.65;;;2.20;;
34317;SDS011;20582;52.196;20.952;2022-09-21T14:31:00;4.82;;;1.73;;
34317;SDS011;20582;52.196;20.952;2022-09-21T14:33:40;2.38;;;1.67;;
34317;SDS011;20582;52.196;20.952;2022-09-21T14:36:08;6.05;;;1.98;;
34317;SDS011;20582;52.196;20.952;2022-09-21T14:38:40;3.13;;;1.50;;
34317;SDS011;20582;52.196;20.952;2022-09-21T14:41:07;3.42;;;1.40;;
34317;SDS011;20582;52.196;20.952;2022-09-21T14:43:34;4.20;;;1.40;;
34317;SDS011;20582;52.196;20.952;2022-09-21T14:46:08;3.55;;;1.33;;
34317;SDS011;20582;52.196;20.952;2022-09-21T14:49:12;4.53;;;1.42;;
34317;SDS011;20582;52.196;20.952;2022-09-21T14:54:21;3.63;;;1.05;;
34317;SDS011;20582;52.196;20.952;2022-09-21T15:01:56;4.10;;;1.50;;
34317;SDS011;20582;52.196;20.952;2022-09-21T15:04:28;4.13;;;1.38;;
34317;SDS011;20582;52.196;20.952;2022-09-21T15:09:44;4.00;;;1.60;;
34317;SDS011;20582;52.196;20.952;2022-09-21T15:15:25;2.90;;;1.50;;
34317;SDS011;20582;52.196;20.952;2022-09-21T15:17:57;4.03;;;1.60;;
34317;SDS011;20582;52.196;20.952;2022-09-21T15:20:25;2.78;;;1.60;;
34317;SDS011;20582;52.196;20.952;2022-09-21T15:22:55;4.65;;;1.73;;
34317;SDS011;20582;52.196;20.952;2022-09-21T15:25:23;3.28;;;1.67;;
34317;SDS011;20582;52.196;20.952;2022-09-21T15:27:50;5.57;;;1.73;;
34317;SDS011;20582;52.196;20.952;2022-09-21T15:30:23;4.80;;;1.70;;
34317;SDS011;20582;52.196;20.952;2022-09-21T15:32:54;2.67;;;1.42;;
34317;SDS011;20582;52.196;20.952;2022-09-21T15:35:22;3.42;;;1.58;;
34317;SDS011;20582;52.196;20.952;2022-09-21T15:37:50;5.25;;;1.60;;
34317;SDS011;20582;52.196;20.952;2022-09-21T15:40:23;5.63;;;1.75;;
34317;SDS011;20582;52.196;20.952;2022-09-21T15:45:29;7.80;;;1.70;;
34317;SDS011;20582;52.196;20.952;2022-09-21T15:47:58;4.63;;;1.40;;
34317;SDS011;20582;52.196;20.952;2022-09-21T15:50:24;4.40;;;1.40;;
34317;SDS011;20582;52.196;20.952;2022-09-21T15:52:53;5.50;;;1.73;;
34317;SDS011;20582;52.196;20.952;2022-09-21T15:55:21;4.00;;;1.50;;
34317;SDS011;20582;52.196;20.952;2022-09-21T15:57:48;3.92;;;1.77;;
34317;SDS011;20582;52.196;20.952;2022-09-21T16:02:41;3.45;;;1.50;;
34317;SDS011;20582;52.196;20.952;2022-09-21T16:05:14;3.67;;;1.70;;
34317;SDS011;20582;52.196;20.952;2022-09-21T16:07:44;5.07;;;1.73;;
34317;SDS011;20582;52.196;20.952;2022-09-21T16:16:05;4.07;;;1.80;;
34317;SDS011;20582;52.196;20.952;2022-09-21T16:18:53;3.85;;;1.85;;
34317;SDS011;20582;52.196;20.952;2022-09-21T16:21:24;4.43;;;1.60;;
34317;SDS011;20582;52.196;20.952;2022-09-21T16:23:57;4.53;;;1.40;;
34317;SDS011;20582;52.196;20.952;2022-09-21T16:26:34;4.75;;;1.55;;
34317;SDS011;20582;52.196;20.952;2022-09-21T16:31:33;5.00;;;1.60;;
34317;SDS011;20582;52.196;20.952;2022-09-21T16:34:20;5.05;;;1.63;;
34317;SDS011;20582;52.196;20.952;2022-09-21T16:36:47;2.35;;;1.38;;
34317;SDS011;20582;52.196;20.952;2022-09-21T16:39:14;5.25;;;1.70;;
34317;SDS011;20582;52.196;20.952;2022-09-21T16:41:45;3.97;;;1.73;;
34317;SDS011;20582;52.196;20.952;2022-09-21T16:44:12;1.83;;;1.10;;
34317;SDS011;20582;52.196;20.952;2022-09-21T16:46:44;5.35;;;1.63;;
34317;SDS011;20582;52.196;20.952;2022-09-21T16:49:14;3.40;;;1.30;;
34317;SDS011;20582;52.196;20.952;2022-09-21T16:51:42;2.67;;;1.23;;
34317;SDS011;20582;52.196;20.952;2022-09-21T16:54:09;3.53;;;1.30;;
34317;SDS011;20582;52.196;20.952;2022-09-21T16:56:35;4.55;;;1.60;;
34317;SDS011;20582;52.196;20.952;2022-09-21T16:59:04;2.53;;;1.40;;
34317;SDS011;20582;52.196;20.952;2022-09-21T17:01:30;4.68;;;1.38;;
34317;SDS011;20582;52.196;20.952;2022-09-21T17:03:56;4.78;;;1.90;;
34317;SDS011;20582;52.196;20.952;2022-09-21T17:06:22;4.53;;;1.95;;
34317;SDS011;20582;52.196;20.952;2022-09-21T17:08:48;3.85;;;1.75;;
34317;SDS011;20582;52.196;20.952;2022-09-21T17:11:15;5.60;;;2.00;;
34317;SDS011;20582;52.196;20.952;2022-09-21T17:13:44;4.97;;;1.90;;
34317;SDS011;20582;52.196;20.952;2022-09-21T17:16:10;5.13;;;2.10;;
34317;SDS011;20582;52.196;20.952;2022-09-21T17:18:39;6.53;;;2.45;;
34317;SDS011;20582;52.196;20.952;2022-09-21T17:21:06;3.92;;;2.25;;
34317;SDS011;20582;52.196;20.952;2022-09-21T17:23:32;4.47;;;2.20;;
34317;SDS011;20582;52.196;20.952;2022-09-21T17:26:00;5.88;;;2.20;;
34317;SDS011;20582;52.196;20.952;2022-09-21T17:28:26;4.30;;;1.95;;
34317;SDS011;20582;52.196;20.952;2022-09-21T17:30:53;3.55;;;1.88;;
34317;SDS011;20582;52.196;20.952;2022-09-21T17:33:19;5.35;;;2.33;;
34317;SDS011;20582;52.196;20.952;2022-09-21T17:35:46;5.15;;;2.38;;
34317;SDS011;20582;52.196;20.952;2022-09-21T17:38:12;4.35;;;2.25;;
34317;SDS011;20582;52.196;20.952;2022-09-21T17:40:38;5.65;;;2.40;;
34317;SDS011;20582;52.196;20.952;2022-09-21T17:43:06;6.53;;;2.50;;
34317;SDS011;20582;52.196;20.952;2022-09-21T17:45:39;5.57;;;2.63;;
34317;SDS011;20582;52.196;20.952;2022-09-21T17:48:16;8.70;;;3.38;;
34317;SDS011;20582;52.196;20.952;2022-09-21T17:50:42;6.30;;;2.80;;
34317;SDS011;20582;52.196;20.952;2022-09-21T17:53:10;5.97;;;3.10;;
34317;SDS011;20582;52.196;20.952;2022-09-21T17:55:59;5.30;;;2.78;;
34317;SDS011;20582;52.196;20.952;2022-09-21T18:03:38;7.03;;;3.20;;